Time;durP1;ratioP1;P1;durP2;ratioP2;P2;SDS_P1;SDS_P2;PMS_P1;PMS_P2;Temp;Humidity;BMP_temperature;BMP_pressure;BME280_temperature;BME280_humidity;BME280_pressure;Samples;Min_cycle;Max_cycle;Signal;HPM_P1;HPM_P2
2021/06/14 00:01:38;;;;;;;;;;;19.50;49.20;;;;;;5149448;27;19975;-72
2021/06/14 00:04:05;;;;;;;;;;;19.50;49.60;;;;;;5128878;27;20010;-72
2021/06/14 00:06:32;;;;;;;;;;;19.60;49.40;;;;;;5148530;27;19958;-71
2021/06/14 00:08:59;;;;;;;;;;;19.60;49.00;;;;;;5128806;27;20310;-71
2021/06/14 00:11:25;;;;;;;;;;;19.50;49.30;;;;;;5144423;27;19955;-71
2021/06/14 00:13:52;;;;;;;;;;;19.40;49.40;;;;;;5150536;27;20013;-70
2021/06/14 00:16:19;;;;;;;;;;;19.40;49.90;;;;;;5151736;27;20390;-70
2021/06/14 00:18:46;;;;;;;;;;;19.40;49.30;;;;;;5151295;27;19998;-70
2021/06/14 00:21:13;;;;;;;;;;;19.50;49.00;;;;;;5155129;27;19974;-72
2021/06/14 00:23:40;;;;;;;;;;;19.50;49.30;;;;;;5149451;27;19964;-72
2021/06/14 00:26:09;;;;;;;;;;;19.50;49.00;;;;;;5131541;27;20286;-71
2021/06/14 00:28:37;;;;;;;;;;;19.60;49.10;;;;;;5151743;27;19950;-71
2021/06/14 00:31:04;;;;;;;;;;;19.30;49.00;;;;;;5151664;27;19958;-71
2021/06/14 00:33:31;;;;;;;;;;;19.10;49.90;;;;;;5151884;27;19923;-72
2021/06/14 00:35:57;;;;;;;;;;;19.00;50.30;;;;;;5153949;27;19942;-70
2021/06/14 00:38:24;;;;;;;;;;;19.10;49.70;;;;;;5147853;27;19987;-70
2021/06/14 00:40:51;;;;;;;;;;;19.20;49.50;;;;;;5150508;27;19919;-70
2021/06/14 00:43:18;;;;;;;;;;;19.20;49.50;;;;;;5132305;27;19977;-71
2021/06/14 00:45:46;;;;;;;;;;;19.30;49.50;;;;;;5149153;27;20043;-71
2021/06/14 00:48:13;;;;;;;;;;;19.40;49.20;;;;;;5141659;27;19931;-71
2021/06/14 00:50:44;;;;;;;;;;;19.20;49.40;;;;;;5153792;27;19964;-71
2021/06/14 00:53:14;;;;;;;;;;;19.10;50.30;;;;;;5147821;27;20017;-71
2021/06/14 00:55:41;;;;;;;;;;;19.00;50.10;;;;;;5148993;27;22160;-71
2021/06/14 00:58:10;;;;;;;;;;;19.20;50.00;;;;;;5145383;27;20009;-71
2021/06/14 01:00:37;;;;;;;;;;;19.00;50.20;;;;;;5128091;27;19961;-71
2021/06/14 01:03:04;;;;;;;;;;;19.00;50.20;;;;;;5144656;27;19927;-71
2021/06/14 01:05:33;;;;;;;;;;;18.90;50.30;;;;;;5151709;27;20322;-72
2021/06/14 01:08:00;;;;;;;;;;;19.00;50.50;;;;;;5128200;27;19998;-69
2021/06/14 01:10:26;;;;;;;;;;;18.90;50.40;;;;;;5149426;27;19962;-70
2021/06/14 01:13:06;;;;;;;;;;;19.00;50.40;;;;;;5148751;27;20002;-69
2021/06/14 01:15:53;;;;;;;;;;;18.90;51.10;;;;;;5147448;27;20011;-68
2021/06/14 01:18:25;;;;;;;;;;;18.70;50.80;;;;;;5146412;27;19931;-68
2021/06/14 01:21:01;;;;;;;;;;;18.40;51.70;;;;;;5152184;27;19926;-69
2021/06/14 01:23:36;;;;;;;;;;;18.40;51.70;;;;;;5148584;27;20388;-69
2021/06/14 01:26:12;;;;;;;;;;;18.30;51.60;;;;;;5151028;27;19919;-68
2021/06/14 01:28:40;;;;;;;;;;;18.30;51.80;;;;;;5131707;27;19923;-68
2021/06/14 01:31:08;;;;;;;;;;;18.30;51.80;;;;;;5127262;27;20477;-68
2021/06/14 01:33:35;;;;;;;;;;;18.40;51.60;;;;;;5149351;27;20009;-69
2021/06/14 01:36:04;;;;;;;;;;;18.50;51.60;;;;;;5150864;27;19923;-68
2021/06/14 01:38:31;;;;;;;;;;;18.40;51.60;;;;;;5147566;27;20270;-68
2021/06/14 01:41:00;;;;;;;;;;;18.30;52.00;;;;;;5129727;27;20005;-69
2021/06/14 01:43:29;;;;;;;;;;;18.40;51.80;;;;;;5131154;27;19958;-69
2021/06/14 01:45:58;;;;;;;;;;;18.40;51.80;;;;;;5149246;27;19962;-69
2021/06/14 01:48:25;;;;;;;;;;;18.40;52.20;;;;;;5144612;27;19980;-69
2021/06/14 01:50:53;;;;;;;;;;;18.30;51.80;;;;;;5132475;27;20085;-69
2021/06/14 01:53:19;;;;;;;;;;;18.30;52.20;;;;;;5145797;27;20364;-69
2021/06/14 01:55:47;;;;;;;;;;;18.40;52.30;;;;;;5143246;27;20533;-69
2021/06/14 01:58:15;;;;;;;;;;;18.40;52.00;;;;;;5148580;27;20021;-70
2021/06/14 02:00:43;;;;;;;;;;;18.30;52.10;;;;;;5148167;27;20009;-69
2021/06/14 02:03:11;;;;;;;;;;;18.30;52.40;;;;;;5145811;27;19923;-70
2021/06/14 02:05:37;;;;;;;;;;;18.40;52.40;;;;;;5152428;27;19964;-69
2021/06/14 02:08:07;;;;;;;;;;;18.40;52.10;;;;;;5151093;27;20261;-69
2021/06/14 02:10:35;;;;;;;;;;;18.50;51.90;;;;;;5147560;27;19962;-70
2021/06/14 02:13:03;;;;;;;;;;;18.40;52.00;;;;;;5152768;27;20281;-70
2021/06/14 02:15:30;;;;;;;;;;;18.40;52.00;;;;;;5149908;27;20543;-69
2021/06/14 02:17:57;;;;;;;;;;;18.40;51.90;;;;;;5129971;27;20377;-69
2021/06/14 02:20:25;;;;;;;;;;;18.40;52.00;;;;;;5151309;27;19922;-70
2021/06/14 02:22:52;;;;;;;;;;;18.40;52.00;;;;;;5147698;27;20354;-69
2021/06/14 02:25:19;;;;;;;;;;;18.40;51.70;;;;;;5145452;27;19920;-69
2021/06/14 02:27:46;;;;;;;;;;;18.30;51.70;;;;;;5151811;27;19965;-69
2021/06/14 02:30:15;;;;;;;;;;;18.30;51.90;;;;;;5147313;27;20401;-70
2021/06/14 02:32:41;;;;;;;;;;;18.20;52.00;;;;;;5129989;27;19958;-70
2021/06/14 02:35:09;;;;;;;;;;;18.20;52.20;;;;;;5151552;27;19965;-71
2021/06/14 02:37:37;;;;;;;;;;;18.00;52.50;;;;;;5149168;27;19962;-67
2021/06/14 02:40:05;;;;;;;;;;;17.80;53.10;;;;;;5149086;27;19961;-68
2021/06/14 02:42:33;;;;;;;;;;;17.70;53.30;;;;;;5142186;27;20001;-68
2021/06/14 02:45:00;;;;;;;;;;;17.70;53.20;;;;;;5147309;27;20020;-68
2021/06/14 02:47:27;;;;;;;;;;;17.70;53.20;;;;;;5130863;27;19952;-69
2021/06/14 02:49:56;;;;;;;;;;;17.60;53.50;;;;;;5151969;27;19919;-68
2021/06/14 02:52:23;;;;;;;;;;;17.60;53.40;;;;;;5148232;27;19981;-68
2021/06/14 02:54:52;;;;;;;;;;;17.70;53.30;;;;;;5147311;27;19965;-68
2021/06/14 02:57:20;;;;;;;;;;;17.80;53.50;;;;;;5149352;27;19958;-69
2021/06/14 02:59:48;;;;;;;;;;;18.00;53.10;;;;;;5143385;27;20350;-68
2021/06/14 03:02:15;;;;;;;;;;;18.00;52.80;;;;;;5148869;27;19954;-68
2021/06/14 03:04:42;;;;;;;;;;;17.80;53.20;;;;;;5130545;27;19919;-68
2021/06/14 03:07:08;;;;;;;;;;;17.70;53.70;;;;;;5146559;27;20361;-68
2021/06/14 03:09:35;;;;;;;;;;;17.70;53.80;;;;;;5147713;27;20022;-69
2021/06/14 03:12:02;;;;;;;;;;;17.70;54.30;;;;;;5130211;27;20286;-68
2021/06/14 03:14:30;;;;;;;;;;;17.70;53.90;;;;;;5147402;27;20010;-68
2021/06/14 03:16:56;;;;;;;;;;;17.70;53.80;;;;;;5151106;27;19967;-68
2021/06/14 03:19:24;;;;;;;;;;;17.70;53.80;;;;;;5149686;27;19919;-68
2021/06/14 03:21:51;;;;;;;;;;;17.60;53.90;;;;;;5144734;27;20006;-67
2021/06/14 03:24:18;;;;;;;;;;;17.70;53.80;;;;;;5148424;27;19969;-67
2021/06/14 03:26:46;;;;;;;;;;;17.80;53.60;;;;;;5132485;27;20003;-68
2021/06/14 03:29:18;;;;;;;;;;;17.60;53.80;;;;;;5144657;27;19974;-68
2021/06/14 03:31:46;;;;;;;;;;;17.60;53.90;;;;;;5148305;27;20297;-68
2021/06/14 03:34:14;;;;;;;;;;;17.70;54.30;;;;;;5148378;27;19995;-68
2021/06/14 03:36:41;;;;;;;;;;;17.70;54.00;;;;;;5124861;27;20010;-68
2021/06/14 03:39:08;;;;;;;;;;;17.60;54.00;;;;;;5146151;27;20044;-69
2021/06/14 03:41:40;;;;;;;;;;;17.60;54.30;;;;;;5149924;27;19947;-68
2021/06/14 03:44:06;;;;;;;;;;;17.60;54.20;;;;;;5124311;27;20291;-69
2021/06/14 03:46:33;;;;;;;;;;;17.60;54.00;;;;;;5143250;27;19927;-68
2021/06/14 03:49:00;;;;;;;;;;;17.50;54.30;;;;;;5131449;27;19931;-67
2021/06/14 03:51:27;;;;;;;;;;;17.50;54.40;;;;;;5129526;27;19971;-69
2021/06/14 03:53:57;;;;;;;;;;;17.60;54.20;;;;;;5146917;27;20010;-68
2021/06/14 03:56:24;;;;;;;;;;;17.50;54.40;;;;;;5149048;27;19954;-67
2021/06/14 03:58:51;;;;;;;;;;;17.50;54.50;;;;;;5126572;27;19951;-68
2021/06/14 04:01:18;;;;;;;;;;;17.60;54.50;;;;;;5151448;27;19919;-69
2021/06/14 04:03:52;;;;;;;;;;;17.60;54.40;;;;;;5146678;27;19945;-68
2021/06/14 04:06:19;;;;;;;;;;;17.70;54.30;;;;;;5128440;27;21140;-68
2021/06/14 04:08:45;;;;;;;;;;;17.60;54.70;;;;;;5131532;27;20486;-69
2021/06/14 04:11:12;;;;;;;;;;;17.60;54.40;;;;;;5147110;27;19998;-68
2021/06/14 04:13:39;;;;;;;;;;;17.60;54.50;;;;;;5148645;27;19961;-69
2021/06/14 04:16:06;;;;;;;;;;;17.60;54.60;;;;;;5131215;27;20029;-69
2021/06/14 04:18:32;;;;;;;;;;;17.50;54.50;;;;;;5147255;27;19918;-69
2021/06/14 04:20:59;;;;;;;;;;;17.60;54.70;;;;;;5147173;27;19969;-69
2021/06/14 04:23:26;;;;;;;;;;;17.60;54.90;;;;;;5150963;27;20069;-68
2021/06/14 04:25:52;;;;;;;;;;;17.60;55.10;;;;;;5145729;27;19926;-68
2021/06/14 04:28:19;;;;;;;;;;;17.70;54.50;;;;;;5146650;27;19966;-69
2021/06/14 04:30:46;;;;;;;;;;;17.80;54.40;;;;;;5149621;27;19961;-69
2021/06/14 04:33:12;;;;;;;;;;;17.90;54.30;;;;;;5147586;27;20377;-68
2021/06/14 04:35:39;;;;;;;;;;;17.90;54.00;;;;;;5146842;27;20025;-68
2021/06/14 04:38:06;;;;;;;;;;;17.80;54.30;;;;;;5145906;27;19958;-68
2021/06/14 04:40:32;;;;;;;;;;;18.00;54.30;;;;;;5142281;27;20472;-68
2021/06/14 04:42:59;;;;;;;;;;;18.10;54.20;;;;;;5147874;27;20014;-69
2021/06/14 04:45:26;;;;;;;;;;;18.00;54.80;;;;;;5126114;27;20387;-69
2021/06/14 04:47:52;;;;;;;;;;;18.10;54.40;;;;;;5128101;27;19946;-69
2021/06/14 04:50:20;;;;;;;;;;;18.20;54.20;;;;;;5148953;27;19976;-69
2021/06/14 04:52:46;;;;;;;;;;;18.50;53.50;;;;;;5148082;27;19972;-68
2021/06/14 04:55:13;;;;;;;;;;;18.90;53.60;;;;;;5128457;27;19925;-69
2021/06/14 04:57:40;;;;;;;;;;;19.20;52.40;;;;;;5150078;27;19919;-69
2021/06/14 05:00:09;;;;;;;;;;;19.40;52.00;;;;;;5144895;27;20350;-69
2021/06/14 05:02:35;;;;;;;;;;;19.50;51.90;;;;;;5149039;27;20346;-69
2021/06/14 05:05:03;;;;;;;;;;;19.50;51.50;;;;;;5149576;27;19955;-68
2021/06/14 05:07:30;;;;;;;;;;;19.60;51.50;;;;;;5131009;27;19973;-68
2021/06/14 05:09:57;;;;;;;;;;;20.10;50.90;;;;;;5129503;27;19919;-68
2021/06/14 05:12:24;;;;;;;;;;;20.30;50.30;;;;;;5152279;27;19923;-70
2021/06/14 05:14:51;;;;;;;;;;;20.80;49.60;;;;;;5147648;27;19925;-69
2021/06/14 05:17:17;;;;;;;;;;;21.40;48.50;;;;;;5149828;27;20590;-69
2021/06/14 05:19:47;;;;;;;;;;;22.10;47.80;;;;;;5152026;27;20019;-69
2021/06/14 05:22:14;;;;;;;;;;;22.40;47.20;;;;;;5152140;27;19919;-68
2021/06/14 05:24:41;;;;;;;;;;;22.90;46.90;;;;;;5153445;27;19958;-68
2021/06/14 05:27:08;;;;;;;;;;;23.60;45.80;;;;;;5151624;27;19952;-70
2021/06/14 05:29:35;;;;;;;;;;;24.20;45.10;;;;;;5127515;27;20006;-69
2021/06/14 05:32:02;;;;;;;;;;;24.80;44.50;;;;;;5147946;27;19927;-69
2021/06/14 05:34:29;;;;;;;;;;;25.60;43.80;;;;;;5151298;27;19919;-69
2021/06/14 05:36:56;;;;;;;;;;;25.90;43.00;;;;;;5132269;27;20521;-69
2021/06/14 05:39:23;;;;;;;;;;;26.00;42.70;;;;;;5150461;27;19919;-68
2021/06/14 05:41:50;;;;;;;;;;;23.90;44.10;;;;;;5152858;27;20376;-69
2021/06/14 05:44:17;;;;;;;;;;;22.70;47.50;;;;;;5150062;27;19919;-69
2021/06/14 05:46:43;;;;;;;;;;;23.10;46.80;;;;;;5147011;27;19919;-68
2021/06/14 05:49:10;;;;;;;;;;;21.30;48.10;;;;;;5149641;27;19922;-68
2021/06/14 05:51:38;;;;;;;;;;;20.50;50.00;;;;;;5146511;27;19919;-68
2021/06/14 05:54:06;;;;;;;;;;;20.20;50.90;;;;;;5147626;27;19984;-68
2021/06/14 05:56:33;;;;;;;;;;;19.80;51.80;;;;;;5151207;27;20390;-68
2021/06/14 05:59:00;;;;;;;;;;;19.70;52.10;;;;;;5129284;27;19922;-69
2021/06/14 06:01:28;;;;;;;;;;;20.00;51.90;;;;;;5147598;27;19994;-68
2021/06/14 06:03:55;;;;;;;;;;;20.10;51.10;;;;;;5127171;27;19960;-68
2021/06/14 06:06:21;;;;;;;;;;;20.50;50.90;;;;;;5145975;27;19923;-68
2021/06/14 06:08:48;;;;;;;;;;;20.50;50.00;;;;;;5148044;27;19951;-68
2021/06/14 06:11:15;;;;;;;;;;;20.40;50.40;;;;;;5149622;27;19953;-68
2021/06/14 06:13:41;;;;;;;;;;;20.30;50.50;;;;;;5148139;27;20030;-70
2021/06/14 06:16:08;;;;;;;;;;;20.00;51.00;;;;;;5151901;27;19961;-70
2021/06/14 06:18:35;;;;;;;;;;;20.20;50.90;;;;;;5148193;27;19987;-72
2021/06/14 06:21:02;;;;;;;;;;;20.40;50.70;;;;;;5150025;27;20432;-70
2021/06/14 06:23:28;;;;;;;;;;;21.10;50.40;;;;;;5131524;27;19968;-71
2021/06/14 06:25:55;;;;;;;;;;;20.70;50.20;;;;;;5148204;27;20013;-72
2021/06/14 06:28:22;;;;;;;;;;;20.50;50.60;;;;;;5144406;27;20066;-68
2021/06/14 06:30:49;;;;;;;;;;;20.50;50.80;;;;;;5151765;27;19919;-69
2021/06/14 06:33:16;;;;;;;;;;;21.90;49.80;;;;;;5148157;27;19923;-70
2021/06/14 06:35:43;;;;;;;;;;;22.60;47.40;;;;;;5151178;27;19969;-69
2021/06/14 06:38:10;;;;;;;;;;;22.20;48.60;;;;;;5146433;27;19919;-69
2021/06/14 06:40:37;;;;;;;;;;;21.50;49.40;;;;;;5122650;27;19960;-69
2021/06/14 06:43:05;;;;;;;;;;;22.10;48.70;;;;;;5127049;27;19919;-69
2021/06/14 06:45:32;;;;;;;;;;;22.20;48.80;;;;;;5149608;27;20097;-69
2021/06/14 06:48:01;;;;;;;;;;;23.00;47.70;;;;;;5129991;27;20406;-70
2021/06/14 06:50:28;;;;;;;;;;;24.40;46.50;;;;;;5127904;27;20013;-69
2021/06/14 06:52:55;;;;;;;;;;;27.80;41.20;;;;;;5143883;27;19919;-68
2021/06/14 06:55:21;;;;;;;;;;;25.90;41.30;;;;;;5149414;27;20029;-68
2021/06/14 06:57:48;;;;;;;;;;;23.80;44.50;;;;;;5146666;27;19919;-69
2021/06/14 07:00:16;;;;;;;;;;;22.40;47.00;;;;;;5147010;27;19954;-68
2021/06/14 07:02:43;;;;;;;;;;;22.20;48.10;;;;;;5149555;27;19958;-68
2021/06/14 07:05:29;;;;;;;;;;;21.90;48.10;;;;;;5133052;27;19919;-68
2021/06/14 07:07:56;;;;;;;;;;;21.80;47.20;;;;;;5130657;27;19972;-69
2021/06/14 07:10:23;;;;;;;;;;;21.50;47.10;;;;;;5128029;27;20369;-70
2021/06/14 07:12:55;;;;;;;;;;;21.40;47.50;;;;;;5147110;27;19919;-69
2021/06/14 07:15:22;;;;;;;;;;;21.40;46.60;;;;;;5143062;27;19947;-70
2021/06/14 07:17:49;;;;;;;;;;;21.50;47.20;;;;;;5150896;27;19919;-68
2021/06/14 07:20:15;;;;;;;;;;;22.70;45.80;;;;;;5146536;27;19927;-68
2021/06/14 07:22:42;;;;;;;;;;;24.00;43.30;;;;;;5146038;27;19972;-69
2021/06/14 07:25:09;;;;;;;;;;;24.90;43.10;;;;;;5150556;27;20011;-68
2021/06/14 07:27:36;;;;;;;;;;;24.30;42.70;;;;;;5144214;27;20295;-68
2021/06/14 07:30:11;;;;;;;;;;;23.70;43.90;;;;;;5146516;27;19919;-68
2021/06/14 07:32:38;;;;;;;;;;;22.60;44.90;;;;;;5148575;27;20002;-68
2021/06/14 07:35:05;;;;;;;;;;;22.00;47.20;;;;;;5146276;27;19930;-68
2021/06/14 07:37:32;;;;;;;;;;;22.20;46.30;;;;;;5148830;27;19969;-69
2021/06/14 07:39:59;;;;;;;;;;;22.40;46.20;;;;;;5146745;27;20291;-69
2021/06/14 07:42:25;;;;;;;;;;;22.20;45.60;;;;;;5145275;27;20021;-69
2021/06/14 07:44:52;;;;;;;;;;;21.80;45.90;;;;;;5148690;27;19965;-70
2021/06/14 07:47:19;;;;;;;;;;;21.70;46.30;;;;;;5147441;27;19927;-69
2021/06/14 07:49:46;;;;;;;;;;;21.70;46.40;;;;;;5144216;27;20285;-67
2021/06/14 07:52:12;;;;;;;;;;;21.80;46.80;;;;;;5149673;27;20001;-67
2021/06/14 07:54:45;;;;;;;;;;;21.80;46.70;;;;;;5129061;27;19923;-67
2021/06/14 07:57:12;;;;;;;;;;;21.90;46.40;;;;;;5131609;27;19927;-71
2021/06/14 07:59:39;;;;;;;;;;;22.00;45.80;;;;;;5144927;27;20368;-71
2021/06/14 08:02:06;;;;;;;;;;;22.00;46.10;;;;;;5128013;27;20009;-68
2021/06/14 08:04:32;;;;;;;;;;;22.00;46.70;;;;;;5145326;27;20421;-69
2021/06/14 08:06:59;;;;;;;;;;;21.90;46.50;;;;;;5149141;27;20122;-69
2021/06/14 08:09:30;;;;;;;;;;;21.70;47.30;;;;;;5148516;27;20929;-69
2021/06/14 08:12:01;;;;;;;;;;;21.60;47.50;;;;;;5147729;27;20015;-68
2021/06/14 08:14:28;;;;;;;;;;;21.70;47.30;;;;;;5127758;28;19919;-68
2021/06/14 08:16:55;;;;;;;;;;;21.90;46.50;;;;;;5147845;27;19941;-67
2021/06/14 08:19:34;;;;;;;;;;;21.80;46.30;;;;;;5139613;27;19925;-67
2021/06/14 08:27:36;;;;;;;;;;;22.20;47.00;;;;;;5149085;27;19950;-71
2021/06/14 08:30:05;;;;;;;;;;;22.00;47.00;;;;;;5146055;27;19963;-70
2021/06/14 08:32:32;;;;;;;;;;;22.10;48.00;;;;;;5141281;27;19923;-73
2021/06/14 08:34:59;;;;;;;;;;;21.90;47.00;;;;;;5152447;27;19984;-67
2021/06/14 08:37:25;;;;;;;;;;;22.00;47.30;;;;;;5152593;27;20422;-69
2021/06/14 08:39:52;;;;;;;;;;;22.10;46.60;;;;;;5145841;27;20002;-68
2021/06/14 08:42:19;;;;;;;;;;;22.20;46.50;;;;;;5153589;27;19967;-69
2021/06/14 08:44:46;;;;;;;;;;;22.30;47.30;;;;;;5148027;27;20038;-67
2021/06/14 08:47:14;;;;;;;;;;;22.30;46.20;;;;;;5142234;27;19926;-68
2021/06/14 08:49:42;;;;;;;;;;;22.50;45.40;;;;;;5153267;27;19919;-69
2021/06/14 08:52:09;;;;;;;;;;;22.50;45.20;;;;;;5130015;27;19927;-69
2021/06/14 08:54:41;;;;;;;;;;;22.50;46.20;;;;;;5133053;27;20023;-67
2021/06/14 08:57:07;;;;;;;;;;;22.50;45.00;;;;;;5152744;27;19919;-67
2021/06/14 08:59:37;;;;;;;;;;;22.60;44.60;;;;;;5147752;27;19999;-67
2021/06/14 09:02:04;;;;;;;;;;;22.90;43.80;;;;;;5152099;27;20387;-66
2021/06/14 09:04:32;;;;;;;;;;;23.00;43.90;;;;;;5151709;27;19945;-67
2021/06/14 09:07:00;;;;;;;;;;;22.80;42.90;;;;;;5147043;27;20310;-70
2021/06/14 09:09:29;;;;;;;;;;;22.90;43.50;;;;;;5146562;27;19919;-70
2021/06/14 09:12:03;;;;;;;;;;;23.00;43.00;;;;;;5149208;27;19985;-70
2021/06/14 09:14:38;;;;;;;;;;;23.10;42.80;;;;;;5149323;27;20246;-71
2021/06/14 09:17:08;;;;;;;;;;;23.10;42.90;;;;;;5122699;27;19920;-68
2021/06/14 09:19:39;;;;;;;;;;;23.10;43.00;;;;;;5120108;27;20346;-72
2021/06/14 09:22:16;;;;;;;;;;;23.00;43.10;;;;;;5149236;27;20002;-68
2021/06/14 09:24:55;;;;;;;;;;;22.80;44.10;;;;;;5148929;27;19999;-68
2021/06/14 09:27:26;;;;;;;;;;;23.10;43.60;;;;;;5126680;27;19979;-68
2021/06/14 09:29:53;;;;;;;;;;;23.20;42.70;;;;;;5148944;27;19968;-69
2021/06/14 09:32:20;;;;;;;;;;;23.00;42.90;;;;;;5145828;27;20377;-71
2021/06/14 09:34:47;;;;;;;;;;;23.10;43.30;;;;;;5151391;27;20419;-70
2021/06/14 09:37:16;;;;;;;;;;;23.20;43.60;;;;;;5149715;27;19977;-69
2021/06/14 09:39:44;;;;;;;;;;;23.40;43.00;;;;;;5145341;27;20048;-68
2021/06/14 09:42:13;;;;;;;;;;;23.40;43.60;;;;;;5151883;27;20405;-69
2021/06/14 09:44:40;;;;;;;;;;;23.30;43.50;;;;;;5147181;27;20222;-69
2021/06/14 09:47:09;;;;;;;;;;;23.40;42.80;;;;;;5148886;27;20025;-68
2021/06/14 09:49:36;;;;;;;;;;;23.30;43.10;;;;;;5134726;27;19922;-69
2021/06/14 09:52:04;;;;;;;;;;;23.30;43.10;;;;;;5128197;27;19979;-70
2021/06/14 09:54:31;;;;;;;;;;;23.40;43.10;;;;;;5144261;27;20417;-69
2021/06/14 09:56:59;;;;;;;;;;;23.50;42.90;;;;;;5132888;27;19934;-69
2021/06/14 09:59:27;;;;;;;;;;;23.60;43.90;;;;;;5145636;27;20284;-69
2021/06/14 10:02:23;;;;;;;;;;;23.50;43.00;;;;;;5148645;27;19969;-70
2021/06/14 10:04:53;;;;;;;;;;;23.40;43.10;;;;;;5126344;27;20006;-69
2021/06/14 10:07:24;;;;;;;;;;;23.70;42.40;;;;;;5130653;27;20235;-79
2021/06/14 10:09:52;;;;;;;;;;;23.70;42.50;;;;;;5123422;27;19927;-73
2021/06/14 10:12:21;;;;;;;;;;;23.60;42.30;;;;;;5149833;27;19967;-77
2021/06/14 10:14:49;;;;;;;;;;;23.50;42.90;;;;;;5149509;27;19919;-73
2021/06/14 10:17:28;;;;;;;;;;;23.50;43.00;;;;;;5130739;27;19927;-70
2021/06/14 10:19:55;;;;;;;;;;;23.50;43.40;;;;;;5151646;27;20383;-71
2021/06/14 10:22:23;;;;;;;;;;;23.70;43.10;;;;;;5126883;27;19927;-70
2021/06/14 10:24:50;;;;;;;;;;;23.70;42.40;;;;;;5128422;27;20022;-71
2021/06/14 10:27:17;;;;;;;;;;;23.70;44.00;;;;;;5130135;27;19978;-70
2021/06/14 10:29:44;;;;;;;;;;;23.70;43.00;;;;;;5128765;27;19926;-71
2021/06/14 10:32:10;;;;;;;;;;;23.70;42.70;;;;;;5131636;27;19954;-71
2021/06/14 10:34:37;;;;;;;;;;;23.70;43.10;;;;;;5131797;27;20025;-69
2021/06/14 10:37:04;;;;;;;;;;;23.70;43.00;;;;;;5131934;27;19953;-70
2021/06/14 10:39:31;;;;;;;;;;;23.90;43.00;;;;;;5131561;27;20045;-70
2021/06/14 10:41:58;;;;;;;;;;;24.10;41.90;;;;;;5114136;27;20014;-69
2021/06/14 10:44:25;;;;;;;;;;;23.80;42.10;;;;;;5131686;27;19966;-71
2021/06/14 10:46:51;;;;;;;;;;;23.90;43.50;;;;;;5131391;27;19923;-71
2021/06/14 10:49:19;;;;;;;;;;;23.90;42.60;;;;;;5128752;27;19934;-70
2021/06/14 10:51:55;;;;;;;;;;;24.10;44.90;;;;;;5112369;27;19933;-72
2021/06/14 10:54:22;;;;;;;;;;;24.20;42.60;;;;;;5131249;27;20006;-71
2021/06/14 10:56:49;;;;;;;;;;;24.30;42.40;;;;;;5130750;27;19962;-70
2021/06/14 10:59:17;;;;;;;;;;;24.20;42.60;;;;;;5131381;27;20023;-71
2021/06/14 11:01:45;;;;;;;;;;;24.10;41.80;;;;;;5132902;27;19933;-71
2021/06/14 11:04:25;;;;;;;;;;;24.30;42.90;;;;;;5133145;27;19930;-72
2021/06/14 11:06:55;;;;;;;;;;;24.40;42.90;;;;;;5131926;27;19934;-72
2021/06/14 11:09:23;;;;;;;;;;;24.30;42.00;;;;;;5112847;27;19931;-70
2021/06/14 11:11:54;;;;;;;;;;;24.40;43.00;;;;;;5111785;27;19954;-71
2021/06/14 11:14:38;;;;;;;;;;;24.50;42.10;;;;;;5128922;27;19927;-70
2021/06/14 11:17:15;;;;;;;;;;;24.50;41.70;;;;;;5131300;27;20319;-69
2021/06/14 11:19:42;;;;;;;;;;;24.70;43.00;;;;;;5132804;27;20000;-69
2021/06/14 11:22:09;;;;;;;;;;;24.90;41.50;;;;;;5131613;27;20550;-68
2021/06/14 11:24:37;;;;;;;;;;;25.00;42.20;;;;;;5111995;27;19930;-69
2021/06/14 11:27:08;;;;;;;;;;;25.10;41.70;;;;;;5113095;27;20017;-70
2021/06/14 11:29:46;;;;;;;;;;;25.10;41.90;;;;;;5128922;27;20062;-69
2021/06/14 11:32:18;;;;;;;;;;;25.00;41.50;;;;;;5131219;27;19926;-69
2021/06/14 11:34:47;;;;;;;;;;;24.90;39.60;;;;;;5131597;27;19941;-69
2021/06/14 11:37:14;;;;;;;;;;;25.00;41.50;;;;;;5131610;27;20022;-70
2021/06/14 11:39:42;;;;;;;;;;;24.90;40.20;;;;;;5131127;27;20436;-70
2021/06/14 11:42:17;;;;;;;;;;;25.00;40.00;;;;;;5131265;27;19958;-71
2021/06/14 11:44:51;;;;;;;;;;;24.90;39.30;;;;;;5112850;27;20007;-70
2021/06/14 11:47:24;;;;;;;;;;;25.00;40.50;;;;;;5129823;27;20027;-71
2021/06/14 11:49:52;;;;;;;;;;;25.10;41.30;;;;;;5131848;27;19927;-70
2021/06/14 11:52:34;;;;;;;;;;;25.10;40.30;;;;;;5109564;27;20015;-71
2021/06/14 11:55:07;;;;;;;;;;;25.10;40.30;;;;;;5130932;27;19979;-71
2021/06/14 11:57:44;;;;;;;;;;;25.40;41.30;;;;;;5128482;27;19926;-70
2021/06/14 12:00:31;;;;;;;;;;;25.70;39.40;;;;;;5136491;27;21675;-71
2021/06/14 12:02:58;;;;;;;;;;;25.70;40.70;;;;;;5114607;27;19923;-70
2021/06/14 12:05:43;;;;;;;;;;;25.80;40.30;;;;;;5135878;27;19973;-70
2021/06/14 12:08:10;;;;;;;;;;;25.70;40.60;;;;;;5135751;27;20027;-71
2021/06/14 12:10:37;;;;;;;;;;;25.60;39.90;;;;;;5114306;27;20266;-70
2021/06/14 12:13:23;;;;;;;;;;;25.50;40.30;;;;;;5141530;27;19927;-70
2021/06/14 12:15:50;;;;;;;;;;;25.50;39.60;;;;;;5121120;27;19956;-70
2021/06/14 12:18:18;;;;;;;;;;;26.10;39.10;;;;;;5142253;27;19944;-70
2021/06/14 12:20:54;;;;;;;;;;;28.10;37.30;;;;;;5139938;27;20358;-70
2021/06/14 12:23:21;;;;;;;;;;;29.60;35.20;;;;;;5141376;27;20007;-71
2021/06/14 12:25:49;;;;;;;;;;;34.10;30.80;;;;;;5121547;27;19954;-72
2021/06/14 12:28:17;;;;;;;;;;;38.00;27.30;;;;;;5141650;27;19968;-72
2021/06/14 12:30:44;;;;;;;;;;;38.10;26.50;;;;;;5141842;27;19958;-72
2021/06/14 12:33:11;;;;;;;;;;;40.90;24.50;;;;;;5141907;27;19919;-71
2021/06/14 12:35:38;;;;;;;;;;;41.90;23.40;;;;;;5120818;27;20668;-72
2021/06/14 12:38:09;;;;;;;;;;;42.10;23.00;;;;;;5140315;27;20021;-72
2021/06/14 12:40:38;;;;;;;;;;;41.20;23.40;;;;;;5140879;27;19971;-72
2021/06/14 12:43:06;;;;;;;;;;;42.50;22.70;;;;;;5141101;27;20002;-71
2021/06/14 12:45:34;;;;;;;;;;;42.70;22.50;;;;;;5137762;27;19990;-72
2021/06/14 12:48:03;;;;;;;;;;;42.20;24.10;;;;;;5142503;27;19931;-71
2021/06/14 12:50:31;;;;;;;;;;;39.70;23.90;;;;;;5120873;27;19969;-71
2021/06/14 12:53:00;;;;;;;;;;;38.10;25.80;;;;;;5140227;27;19979;-71
2021/06/14 12:55:28;;;;;;;;;;;37.00;26.50;;;;;;5121149;27;19923;-71
2021/06/14 12:57:55;;;;;;;;;;;36.20;27.30;;;;;;5138589;27;20014;-71
2021/06/14 13:00:26;;;;;;;;;;;35.60;27.60;;;;;;5141281;27;19980;-71
2021/06/14 13:02:54;;;;;;;;;;;35.50;27.40;;;;;;5140496;27;19955;-71
2021/06/14 13:05:25;;;;;;;;;;;35.00;27.50;;;;;;5140871;27;19923;-70
2021/06/14 13:07:56;;;;;;;;;;;34.00;28.40;;;;;;5140711;27;19927;-71
2021/06/14 13:10:24;;;;;;;;;;;33.60;29.40;;;;;;5141633;27;19991;-71
2021/06/14 13:12:51;;;;;;;;;;;33.80;28.40;;;;;;5140301;27;19929;-71
2021/06/14 13:15:19;;;;;;;;;;;32.30;29.40;;;;;;5138437;27;20440;-72
2021/06/14 13:17:53;;;;;;;;;;;32.40;29.60;;;;;;5137984;27;20017;-72
2021/06/14 13:20:21;;;;;;;;;;;32.20;29.50;;;;;;5139979;27;19949;-72
2021/06/14 13:22:48;;;;;;;;;;;31.80;30.00;;;;;;5122389;27;19923;-72
2021/06/14 13:25:15;;;;;;;;;;;32.20;29.40;;;;;;5120143;27;20011;-71
2021/06/14 13:27:53;;;;;;;;;;;32.30;29.50;;;;;;5118511;27;19977;-71
2021/06/14 13:30:21;;;;;;;;;;;31.80;30.00;;;;;;5139480;27;19927;-69
2021/06/14 13:33:02;;;;;;;;;;;31.80;30.00;;;;;;5119776;27;19955;-71
2021/06/14 13:35:29;;;;;;;;;;;32.00;29.90;;;;;;5139598;27;19944;-70
2021/06/14 13:37:57;;;;;;;;;;;31.60;30.50;;;;;;5139491;27;19930;-71
2021/06/14 13:40:28;;;;;;;;;;;31.10;30.70;;;;;;5138533;27;20045;-71
2021/06/14 13:42:57;;;;;;;;;;;31.30;30.70;;;;;;5129197;27;20104;-70
2021/06/14 13:45:45;;;;;;;;;;;31.10;30.20;;;;;;5139521;27;20264;-71
2021/06/14 13:48:12;;;;;;;;;;;30.60;30.70;;;;;;5138331;27;20006;-71
2021/06/14 13:50:40;;;;;;;;;;;30.80;32.00;;;;;;5139673;27;19927;-71
2021/06/14 13:53:13;;;;;;;;;;;30.90;31.50;;;;;;5137244;27;19923;-70
2021/06/14 13:55:47;;;;;;;;;;;30.80;32.20;;;;;;5141067;27;20410;-69
2021/06/14 13:58:15;;;;;;;;;;;30.60;32.10;;;;;;5128959;27;19926;-71
2021/06/14 14:00:43;;;;;;;;;;;29.60;32.00;;;;;;5139057;27;19960;-70
2021/06/14 14:03:10;;;;;;;;;;;29.20;31.90;;;;;;5121245;27;19930;-70
2021/06/14 14:05:38;;;;;;;;;;;29.10;32.00;;;;;;5138845;27;19937;-70
2021/06/14 14:08:07;;;;;;;;;;;29.20;32.20;;;;;;5137029;27;20084;-70
2021/06/14 14:10:34;;;;;;;;;;;29.20;32.10;;;;;;5119576;27;20200;-70
2021/06/14 14:13:01;;;;;;;;;;;29.00;33.10;;;;;;5137901;27;19998;-71
2021/06/14 14:15:32;;;;;;;;;;;28.80;33.90;;;;;;5140448;27;20255;-71
2021/06/14 14:18:00;;;;;;;;;;;28.70;34.10;;;;;;5136417;27;20022;-71
2021/06/14 14:20:27;;;;;;;;;;;28.80;34.90;;;;;;5119091;27;19970;-72
2021/06/14 14:22:54;;;;;;;;;;;28.70;33.80;;;;;;5139421;27;20309;-72
2021/06/14 14:25:25;;;;;;;;;;;28.70;35.90;;;;;;5137246;27;20406;-71
2021/06/14 14:27:52;;;;;;;;;;;28.80;34.20;;;;;;5137313;27;19927;-71
2021/06/14 14:30:22;;;;;;;;;;;28.70;34.50;;;;;;5138152;27;20555;-71